Time;durP1;ratioP1;P1;durP2;ratioP2;P2;SDS_P1;SDS_P2;PMS_P1;PMS_P2;Temp;Humidity;BMP_temperature;BMP_pressure;BME280_temperature;BME280_humidity;BME280_pressure;Samples;Min_cycle;Max_cycle;Signal;HPM_P1;HPM_P2
2022/03/04 00:00:13;;;;;;;43.87;21.73;;;;;;;5.01;38.38;100296.81;5333748;32;44915;-94
2022/03/04 00:03:19;;;;;;;45.03;23.57;;;;;;;4.88;39.74;100293.56;5340663;32;34130;-93
2022/03/04 00:06:28;;;;;;;55.42;25.08;;;;;;;4.46;41.78;100295.13;5342873;32;34045;-93
2022/03/04 00:09:34;;;;;;;49.10;24.53;;;;;;;4.26;42.86;100293.69;5321306;32;33506;-92
2022/03/04 00:12:39;;;;;;;49.57;24.43;;;;;;;4.92;41.68;100292.62;5332516;33;35134;-92
2022/03/04 00:15:46;;;;;;;46.10;23.27;;;;;;;4.78;42.10;100294.63;5331441;32;43508;-92
2022/03/04 00:19:06;;;;;;;44.67;22.33;;;;;;;4.94;41.45;100270.00;5319982;32;34267;-92
2022/03/04 00:22:14;;;;;;;44.13;23.47;;;;;;;5.57;40.54;100300.09;5354536;32;33392;-92
2022/03/04 00:25:21;;;;;;;49.50;22.53;;;;;;;5.53;40.77;100301.03;5348174;32;44311;-93
2022/03/04 00:28:26;;;;;;;45.47;22.83;;;;;;;5.29;41.25;100299.78;5342912;32;34266;-93
2022/03/04 00:31:32;;;;;;;48.20;22.80;;;;;;;6.11;39.16;100289.41;5333872;32;36389;-92
2022/03/04 00:34:38;;;;;;;42.27;21.40;;;;;;;5.28;40.95;100295.44;5306792;32;34259;-92
2022/03/04 00:37:51;;;;;;;48.23;21.13;;;;;;;4.95;41.36;100299.50;5335660;32;44410;-92
2022/03/04 00:40:55;;;;;;;42.70;19.77;;;;;;;5.49;39.96;100282.00;5314799;32;34194;-94
2022/03/04 00:44:01;;;;;;;42.40;21.03;;;;;;;5.81;38.88;100286.56;5355577;32;35111;-92
2022/03/04 00:47:06;;;;;;;41.57;20.97;;;;;;;4.95;40.55;100292.56;5350432;32;34414;-93
2022/03/04 00:50:13;;;;;;;41.60;19.40;;;;;;;4.67;40.68;100289.56;5352562;32;35887;-92
2022/03/04 00:53:21;;;;;;;42.53;20.23;;;;;;;4.33;41.42;100289.25;5338082;32;43478;-94
2022/03/04 00:56:28;;;;;;;43.63;20.17;;;;;;;4.34;41.08;100254.53;5333340;32;35478;-92
2022/03/04 00:59:32;;;;;;;42.07;19.27;;;;;;;4.50;41.06;100286.38;5327554;32;35272;-94
2022/03/04 01:02:37;;;;;;;;;;;;;;;5.59;39.15;100283.53;5340257;32;34344;-93
2022/03/04 01:05:42;;;;;;;34.40;17.80;;;;;;;5.54;39.05;100277.56;5324046;32;44276;-93
2022/03/04 01:08:46;;;;;;;38.33;19.73;;;;;;;4.84;40.71;100287.56;5332210;32;35424;-95
2022/03/04 01:11:52;;;;;;;39.07;18.43;;;;;;;4.71;40.70;100283.44;5330970;32;33968;-91
2022/03/04 01:14:58;;;;;;;33.83;16.93;;;;;;;4.67;41.30;100286.97;5326411;32;33035;-93
2022/03/04 01:18:04;;;;;;;37.67;17.47;;;;;;;4.54;41.96;100288.06;5320950;32;32818;-92
2022/03/04 01:21:14;;;;;;;34.10;16.83;;;;;;;4.89;41.45;100279.62;5347697;32;35773;-91
2022/03/04 01:24:19;;;;;;;35.07;16.87;;;;;;;5.14;41.04;100280.91;5351911;32;44342;-92
2022/03/04 01:27:23;;;;;;;31.67;16.87;;;;;;;4.73;42.17;100280.81;5347692;32;33792;-93
2022/03/04 01:30:27;;;;;;;34.03;15.67;;;;;;;5.11;41.57;100269.72;5356702;32;34633;-92
2022/03/04 01:33:32;;;;;;;34.03;16.80;;;;;;;5.20;41.34;100279.94;5340382;32;32800;-93
2022/03/04 01:36:36;;;;;;;32.23;15.77;;;;;;;5.82;40.56;100272.62;5330373;32;33471;-93
2022/03/04 01:39:43;;;;;;;30.75;16.37;;;;;;;6.08;39.67;100266.00;5321864;32;32518;-92
2022/03/04 01:42:46;;;;;;;34.43;17.40;;;;;;;5.79;40.43;100270.06;5306345;32;43038;-91
2022/03/04 01:45:50;;;;;;;36.88;17.95;;;;;;;5.47;40.95;100272.47;5344437;32;33846;-92
2022/03/04 01:48:57;;;;;;;35.87;18.17;;;;;;;5.93;40.70;100264.59;5333107;32;35390;-94
2022/03/04 01:52:04;;;;;;;32.20;16.67;;;;;;;5.82;40.72;100272.62;5341063;32;34583;-93
2022/03/04 01:55:10;;;;;;;34.47;18.87;;;;;;;5.56;41.52;100278.38;5327243;32;33736;-92
2022/03/04 01:58:16;;;;;;;33.23;16.60;;;;;;;5.82;41.24;100276.97;5362445;32;44439;-94
2022/03/04 02:01:21;;;;;;;34.93;18.00;;;;;;;5.65;41.82;100288.59;5347113;32;34876;-91
2022/03/04 02:04:26;;;;;;;38.37;18.13;;;;;;;4.89;43.68;100283.12;5350060;32;34421;-93
2022/03/04 02:07:31;;;;;;;;;;;;;;;4.82;44.28;100289.31;5322617;32;33270;-94
2022/03/04 02:10:35;;;;;;;33.57;17.00;;;;;;;4.46;45.72;100288.19;5326151;32;32888;-94
2022/03/04 02:13:43;;;;;;;38.07;16.87;;;;;;;5.82;43.43;100280.44;5327195;32;34246;-93
2022/03/04 02:16:50;;;;;;;39.17;17.10;;;;;;;5.96;44.82;100277.56;5313562;32;44417;-94
2022/03/04 02:19:59;;;;;;;34.50;18.07;;;;;;;6.14;44.71;100271.94;5328820;32;35340;-91
2022/03/04 02:23:07;;;;;;;39.30;17.40;;;;;;;5.27;47.97;100276.34;5348607;32;34184;-94
2022/03/04 02:26:14;;;;;;;34.00;16.97;;;;;;;5.83;46.59;100273.47;5341854;32;33276;-92
2022/03/04 02:29:20;;;;;;;34.40;17.77;;;;;;;4.97;49.11;100284.75;5368682;32;43374;-90
2022/03/04 02:32:23;;;;;;;34.80;18.00;;;;;;;6.25;45.99;100271.72;5361612;32;34209;-96
2022/03/04 02:35:30;;;;;;;32.53;17.67;;;;;;;5.43;47.80;100289.94;5338712;32;34365;-95
2022/03/04 02:38:40;;;;;;;35.57;17.37;;;;;;;5.90;47.01;100281.13;5344737;32;33883;-93
2022/03/04 02:41:46;;;;;;;35.33;17.90;;;;;;;5.94;46.98;100282.81;5293407;32;44726;-93
2022/03/04 02:44:55;;;;;;;32.22;16.92;;;;;;;5.04;49.44;100278.53;5337017;32;33753;-92
2022/03/04 02:48:06;;;;;;;35.30;17.73;;;;;;;4.81;50.61;100302.34;5335677;32;32637;-92
2022/03/04 02:51:21;;;;;;;36.13;17.53;;;;;;;5.61;48.38;100299.16;5334827;32;44850;-93
2022/03/04 02:54:27;;;;;;;38.20;18.60;;;;;;;6.09;47.31;100294.66;5335768;32;34078;-92
2022/03/04 02:57:32;;;;;;;34.93;17.87;;;;;;;4.68;51.10;100300.84;5344244;32;33167;-92
2022/03/04 03:00:38;;;;;;;34.20;18.07;;;;;;;4.68;51.72;100298.25;5369460;32;32745;-92
2022/03/04 03:03:43;;;;;;;33.37;17.90;;;;;;;3.97;54.29;100301.03;5350903;32;44985;-94
2022/03/04 03:06:55;;;;;;;38.20;19.40;;;;;;;5.11;51.04;100304.44;5353536;32;35931;-93
2022/03/04 03:10:01;;;;;;;32.13;17.17;;;;;;;4.38;52.88;100307.38;5332435;32;35180;-92
2022/03/04 03:13:07;;;;;;;31.90;17.20;;;;;;;5.62;49.73;100300.88;5331196;32;36702;-93
2022/03/04 03:16:11;;;;;;;33.77;17.43;;;;;;;5.38;49.93;100292.62;5337506;32;42859;-93
2022/03/04 03:19:17;;;;;;;36.40;18.53;;;;;;;5.04;51.11;100305.44;5339838;32;36634;-93
2022/03/04 03:22:23;;;;;;;35.03;18.40;;;;;;;5.11;50.70;100298.37;5347664;32;35242;-95
2022/03/04 03:25:29;;;;;;;36.73;17.77;;;;;;;4.69;52.45;100306.03;5329829;32;34187;-92
2022/03/04 03:28:37;;;;;;;33.47;18.13;;;;;;;4.35;52.97;100303.94;5345953;32;34350;-92
2022/03/04 03:31:46;;;;;;;36.13;18.40;;;;;;;4.84;51.70;100303.19;5361616;32;44866;-92
2022/03/04 03:34:51;;;;;;;38.57;19.33;;;;;;;4.72;51.91;100305.13;5348543;32;32800;-92
2022/03/04 03:37:57;;;;;;;33.37;17.23;;;;;;;4.52;52.40;100311.50;5340058;32;33003;-91
2022/03/04 03:41:04;;;;;;;36.13;19.20;;;;;;;5.15;51.00;100315.63;5315707;32;35958;-93
2022/03/04 03:44:17;;;;;;;34.40;17.37;;;;;;;4.93;50.77;100306.50;5326779;32;44432;-93
2022/03/04 03:47:20;;;;;;;38.50;18.20;;;;;;;5.56;49.36;100301.00;5323971;32;34031;-91
2022/03/04 03:50:25;;;;;;;34.10;17.85;;;;;;;5.71;48.54;100285.88;5342574;32;36746;-94
2022/03/04 03:53:34;;;;;;;34.10;18.17;;;;;;;5.03;50.23;100306.31;5335492;32;36187;-93
2022/03/04 03:56:42;;;;;;;36.03;17.60;;;;;;;5.13;50.10;100300.03;5332414;32;32750;-94
2022/03/04 03:59:50;;;;;;;38.40;17.90;;;;;;;4.75;51.59;100305.91;5345574;32;35361;-93
2022/03/04 04:02:54;;;;;;;34.67;17.87;;;;;;;4.84;50.64;100305.78;5351988;32;33377;-93
2022/03/04 04:06:03;;;;;;;35.60;17.87;;;;;;;4.41;52.48;100307.34;5348282;32;33618;-92
2022/03/04 04:09:08;;;;;;;35.90;18.73;;;;;;;4.19;53.29;100309.41;5352662;32;34121;-91
2022/03/04 04:12:15;;;;;;;34.17;17.43;;;;;;;5.22;50.11;100306.84;5347105;32;43028;-93
2022/03/04 04:15:23;;;;;;;36.77;17.80;;;;;;;4.42;52.26;100309.91;5342563;32;34891;-93
2022/03/04 04:18:29;;;;;;;33.43;17.73;;;;;;;5.60;48.29;100306.13;5345880;32;33415;-93
2022/03/04 04:21:37;;;;;;;36.03;17.57;;;;;;;5.21;48.67;100315.53;5329363;32;33478;-94
2022/03/04 04:24:46;;;;;;;35.07;16.53;;;;;;;4.89;50.26;100317.00;5315721;32;44521;-93
2022/03/04 04:27:54;;;;;;;32.83;17.60;;;;;;;5.58;48.28;100309.62;5328230;32;37162;-92
2022/03/04 04:31:02;;;;;;;34.67;17.50;;;;;;;6.00;47.38;100314.91;5351806;32;35411;-93
2022/03/04 04:34:07;;;;;;;36.80;17.53;;;;;;;5.95;46.90;100315.84;5340902;32;32642;-93
2022/03/04 04:37:12;;;;;;;33.80;18.20;;;;;;;6.07;46.66;100314.72;5342144;32;43438;-92
2022/03/04 04:40:16;;;;;;;42.13;18.57;;;;;;;5.42;48.23;100322.97;5303175;32;34850;-94
2022/03/04 04:43:20;;;;;;;;;;;;;;;4.57;50.94;100321.81;5353722;32;34150;-93
2022/03/04 04:46:24;;;;;;;34.53;17.50;;;;;;;4.72;50.43;100331.16;5357753;32;34437;-94
2022/03/04 04:49:36;;;;;;;32.70;16.37;;;;;;;5.14;48.81;100334.78;5344347;32;33909;-94
2022/03/04 04:52:43;;;;;;;34.53;18.53;;;;;;;4.89;50.38;100337.81;5340595;32;43671;-94
2022/03/04 04:55:49;;;;;;;33.50;17.60;;;;;;;5.89;47.62;100333.34;5323588;32;35081;-93
2022/03/04 04:58:54;;;;;;;35.20;18.27;;;;;;;6.42;46.19;100342.63;5320800;32;35368;-93
2022/03/04 05:02:01;;;;;;;38.10;17.90;;;;;;;5.01;49.77;100348.91;5337966;32;32845;-94
2022/03/04 05:05:12;;;;;;;34.57;18.40;;;;;;;5.41;48.81;100349.06;5364057;32;33067;-94
2022/03/04 05:08:18;;;;;;;42.63;18.97;;;;;;;5.26;49.44;100365.81;5360441;32;43066;-93
2022/03/04 05:11:24;;;;;;;38.10;19.20;;;;;;;5.45;48.72;100368.97;5348651;32;34322;-95
2022/03/04 05:14:28;;;;;;;34.57;17.77;;;;;;;5.25;48.73;100352.84;5353633;32;34608;-93
2022/03/04 05:17:40;;;;;;;36.40;17.57;;;;;;;5.10;49.10;100375.66;5347027;32;33391;-92
2022/03/04 05:20:48;;;;;;;39.07;18.07;;;;;;;5.23;49.18;100376.31;5361746;32;44708;-94
2022/03/04 05:24:02;;;;;;;36.57;18.90;;;;;;;5.73;48.14;100382.31;5358803;32;34749;-92
2022/03/04 05:27:15;;;;;;;41.40;20.00;;;;;;;4.70;50.97;100390.19;5342351;32;35029;-92
2022/03/04 05:30:22;;;;;;;40.50;19.57;;;;;;;5.12;50.31;100383.44;5335257;32;33592;-94
2022/03/04 05:33:29;;;;;;;42.53;19.77;;;;;;;4.66;51.69;100385.94;5347669;32;34451;-93
2022/03/04 05:36:37;;;;;;;42.10;19.70;;;;;;;5.87;47.37;100393.37;5333681;32;34186;-93
2022/03/04 05:39:46;;;;;;;38.20;19.03;;;;;;;5.08;49.27;100373.94;5339161;32;43385;-92
2022/03/04 05:42:51;;;;;;;36.33;18.57;;;;;;;4.87;50.30;100396.00;5340070;32;36341;-95
2022/03/04 05:46:02;;;;;;;36.00;19.05;;;;;;;4.89;49.84;100410.75;5389257;32;20174;-89
2022/03/04 05:49:04;;;;;;;46.10;19.57;;;;;;;4.99;49.88;100410.59;5370393;32;35341;-90
2022/03/04 05:52:07;;;;;;;42.70;20.10;;;;;;;5.31;48.97;100415.28;5367213;32;35314;-89
2022/03/04 05:55:09;;;;;;;43.00;20.17;;;;;;;5.06;49.55;100417.41;5363699;32;34947;-65
2022/03/04 05:58:11;;;;;;;48.53;22.37;;;;;;;4.82;50.69;100426.47;5350421;32;44128;-65
2022/03/04 06:01:14;;;;;;;50.57;21.00;;;;;;;4.58;51.11;100428.56;5369713;32;35672;-65
2022/03/04 06:04:17;;;;;;;40.10;20.17;;;;;;;4.21;52.36;100430.78;5361949;32;34052;-88
2022/03/04 06:07:19;;;;;;;41.97;21.07;;;;;;;5.01;50.84;100432.25;5359959;32;34229;-65
2022/03/04 06:10:21;;;;;;;41.73;21.17;;;;;;;4.34;52.11;100434.94;5365720;32;34632;-73
2022/03/04 06:13:24;;;;;;;45.27;21.03;;;;;;;4.68;51.71;100439.69;5370036;32;35891;-66
2022/03/04 06:16:27;;;;;;;41.80;21.10;;;;;;;4.43;52.06;100440.91;5370271;32;35330;-90
2022/03/04 06:19:29;;;;;;;43.53;20.10;;;;;;;4.31;52.65;100449.72;5366795;32;34757;-91
2022/03/04 06:22:33;;;;;;;37.47;19.57;;;;;;;4.57;51.69;100442.47;5373413;32;34363;-90
2022/03/04 06:25:35;;;;;;;37.17;20.05;;;;;;;5.05;51.07;100454.78;5346647;32;34483;-90
2022/03/04 06:28:38;;;;;;;36.23;19.30;;;;;;;4.28;52.98;100463.63;5360254;32;34664;-74
2022/03/04 06:31:40;;;;;;;36.90;20.60;;;;;;;4.37;52.62;100459.19;5370440;32;44911;-66
2022/03/04 06:34:42;;;;;;;43.97;22.33;;;;;;;3.98;53.75;100456.19;5358490;32;35071;-65
2022/03/04 06:37:44;;;;;;;38.13;20.53;;;;;;;4.80;50.66;100454.28;5374295;32;35047;-85
2022/03/04 06:40:48;;;;;;;42.53;20.77;;;;;;;4.84;51.17;100464.63;5349937;32;34647;-83
2022/03/04 06:43:50;;;;;;;39.65;20.80;;;;;;;4.66;51.78;100464.91;5357327;32;34865;-68
2022/03/04 06:46:52;;;;;;;38.83;20.43;;;;;;;4.67;51.12;100464.00;5363967;32;34297;-72
2022/03/04 06:49:54;;;;;;;41.10;19.93;;;;;;;5.87;47.90;100465.56;5371714;32;34673;-83
2022/03/04 06:52:57;;;;;;;40.43;21.10;;;;;;;4.90;49.76;100468.91;5356808;32;36908;-64
2022/03/04 06:55:59;;;;;;;46.07;20.90;;;;;;;5.63;47.83;100464.25;5377116;32;35449;-65
2022/03/04 06:59:01;;;;;;;40.17;20.47;;;;;;;6.96;45.00;100451.97;5381518;32;35341;-77
2022/03/04 07:02:06;;;;;;;40.37;20.80;;;;;;;6.46;46.37;100463.53;5365838;32;34854;-64
2022/03/04 07:05:09;;;;;;;39.87;21.13;;;;;;;6.17;46.07;100469.34;5367956;32;34723;-78
2022/03/04 07:08:12;;;;;;;39.30;20.60;;;;;;;6.26;46.49;100478.75;5361405;32;44628;-63
2022/03/04 07:11:14;;;;;;;40.17;20.60;;;;;;;5.89;46.97;100487.25;5374414;32;34164;-63
2022/03/04 07:14:16;;;;;;;39.90;20.20;;;;;;;4.28;55.43;100501.81;5372199;32;33337;-76
2022/03/04 07:17:19;;;;;;;41.03;23.17;;;;;;;4.14;58.80;100504.56;5346905;32;35531;-74
2022/03/04 07:20:21;;;;;;;40.23;21.80;;;;;;;3.91;61.92;100509.13;5362447;32;34152;-64
2022/03/04 07:23:24;;;;;;;55.23;26.27;;;;;;;4.83;60.43;100516.72;5357534;32;34610;-72
2022/03/04 07:26:26;;;;;;;73.30;31.73;;;;;;;4.92;60.87;100526.16;5391001;32;34084;-70
2022/03/04 07:29:29;;;;;;;152.70;53.08;;;;;;;5.42;59.31;100510.66;5361209;32;33997;-77
2022/03/04 07:32:34;;;;;;;83.77;33.50;;;;;;;5.33;59.24;100517.75;5370863;32;35784;-78
2022/03/04 07:35:42;;;;;;;60.30;26.30;;;;;;;5.47;59.37;100520.97;5369862;32;34361;-73
2022/03/04 07:38:44;;;;;;;271.27;80.93;;;;;;;5.52;60.25;100524.38;5361915;32;44382;-66
2022/03/04 07:41:48;;;;;;;68.37;30.57;;;;;;;6.26;56.86;100518.75;5347383;32;35354;-71
2022/03/04 07:44:50;;;;;;;81.57;36.53;;;;;;;5.07;59.96;100520.72;5367440;32;34433;-71
2022/03/04 07:47:52;;;;;;;53.33;26.57;;;;;;;5.41;59.13;100526.31;5367754;32;35208;-71
2022/03/04 07:50:55;;;;;;;44.87;23.93;;;;;;;5.97;57.84;100525.37;5368162;32;34158;-71
2022/03/04 07:53:57;;;;;;;45.90;23.43;;;;;;;5.54;58.14;100526.94;5370755;32;37489;-64
2022/03/04 07:56:59;;;;;;;45.33;23.63;;;;;;;6.01;57.01;100531.41;5388962;32;34136;-76
2022/03/04 08:00:06;;;;;;;42.43;23.10;;;;;;;6.34;55.59;100526.44;5367245;32;34082;-79
2022/03/04 08:03:08;;;;;;;41.10;22.70;;;;;;;5.93;56.33;100536.78;5375441;32;33558;-70
2022/03/04 08:06:12;;;;;;;43.10;22.10;;;;;;;4.66;59.88;100534.31;5356808;32;43824;-66
2022/03/04 08:09:15;;;;;;;44.72;23.05;;;;;;;5.49;57.41;100540.09;5368839;32;33911;-75
2022/03/04 08:12:17;;;;;;;43.60;24.02;;;;;;;4.75;57.59;100542.88;5363192;32;35447;-75
2022/03/04 08:15:20;;;;;;;40.47;20.17;;;;;;;5.64;58.46;100537.22;5363389;32;38288;-75
2022/03/04 08:18:22;;;;;;;38.77;21.33;;;;;;;6.77;50.83;100536.88;5369512;32;34417;-75
2022/03/04 08:21:25;;;;;;;40.17;20.30;;;;;;;6.61;50.92;100540.69;5378717;32;36721;-74
2022/03/04 08:24:27;;;;;;;39.70;20.87;;;;;;;5.00;54.99;100542.53;5373207;32;33164;-63
2022/03/04 08:27:29;;;;;;;38.23;21.17;;;;;;;6.82;50.81;100526.31;5362561;32;34085;-70
2022/03/04 08:30:32;;;;;;;38.57;20.17;;;;;;;6.00;53.24;100534.06;5371993;32;33741;-75
2022/03/04 08:33:34;;;;;;;37.87;20.13;;;;;;;6.45;51.15;100530.56;5369741;32;34619;-66
2022/03/04 08:36:36;;;;;;;35.73;17.97;;;;;;;7.32;48.85;100531.28;5377656;32;34865;-76
2022/03/04 08:39:38;;;;;;;39.70;20.03;;;;;;;8.19;44.61;100525.63;5361938;32;35341;-74
2022/03/04 08:42:42;;;;;;;35.50;18.90;;;;;;;7.09;47.77;100527.50;5367530;32;45017;-74
2022/03/04 08:45:44;;;;;;;35.38;20.35;;;;;;;6.82;48.73;100529.78;5380602;32;34612;-64
2022/03/04 08:48:47;;;;;;;35.60;19.60;;;;;;;6.03;50.66;100528.75;5369466;32;34334;-77
2022/03/04 08:51:49;;;;;;;37.90;19.80;;;;;;;6.60;49.64;100528.53;5369628;32;36165;-64
2022/03/04 08:54:51;;;;;;;37.87;19.67;;;;;;;6.05;49.94;100540.03;5367158;32;35632;-76
2022/03/04 08:57:54;;;;;;;39.53;21.07;;;;;;;7.23;47.58;100525.41;5364156;32;35278;-65
2022/03/04 09:00:56;;;;;;;38.03;20.97;;;;;;;8.67;44.54;100533.88;5385372;32;34365;-75
2022/03/04 09:03:58;;;;;;;52.17;27.57;;;;;;;8.13;44.93;100531.87;5363852;32;33667;-64
2022/03/04 09:07:02;;;;;;;43.20;23.43;;;;;;;6.03;51.51;100545.28;5374815;32;35238;-76
2022/03/04 09:10:05;;;;;;;40.63;22.70;;;;;;;7.53;49.20;100536.88;5380247;32;35886;-65
2022/03/04 09:13:07;;;;;;;43.47;22.87;;;;;;;7.87;48.25;100540.41;5371954;32;35171;-64
2022/03/04 09:16:09;;;;;;;45.13;24.07;;;;;;;8.32;47.11;100539.22;5372382;32;35159;-64
2022/03/04 09:19:12;;;;;;;40.63;21.90;;;;;;;7.71;48.55;100543.44;5365663;32;35256;-63
2022/03/04 09:22:14;;;;;;;41.77;22.57;;;;;;;6.65;49.82;100551.06;5373179;32;35352;-77
2022/03/04 09:25:16;;;;;;;46.90;25.67;;;;;;;6.68;49.62;100558.81;5365354;32;34129;-79
2022/03/04 09:28:19;;;;;;;43.25;22.42;;;;;;;6.98;49.95;100549.47;5354158;32;34623;-74
2022/03/04 09:31:22;;;;;;;43.60;24.23;;;;;;;7.56;47.57;100545.53;5362970;32;33360;-69
2022/03/04 09:34:24;;;;;;;40.87;23.07;;;;;;;8.60;45.26;100541.97;5356845;32;34229;-64
2022/03/04 09:37:26;;;;;;;36.63;21.10;;;;;;;8.05;47.08;100548.66;5345964;32;34573;-73
2022/03/04 09:40:31;;;;;;;36.10;20.67;;;;;;;9.30;41.84;100539.84;5349313;32;34077;-73
2022/03/04 09:43:34;;;;;;;44.60;22.90;;;;;;;9.21;41.31;100546.25;5364964;32;34112;-79
2022/03/04 09:46:37;;;;;;;42.07;22.13;;;;;;;8.71;42.31;100552.16;5357767;32;33040;-76
2022/03/04 09:49:39;;;;;;;39.00;21.70;;;;;;;8.23;43.76;100553.41;5369348;32;35605;-75
2022/03/04 09:52:42;;;;;;;37.53;20.63;;;;;;;6.55;46.62;100561.72;5362744;32;44288;-73
2022/03/04 09:55:45;;;;;;;55.95;23.65;;;;;;;7.05;45.43;100563.28;5369091;32;34120;-75
2022/03/04 09:58:48;;;;;;;43.67;23.00;;;;;;;8.02;44.22;100553.97;5370872;32;35581;-72
2022/03/04 10:01:57;;;;;;;42.03;21.43;;;;;;;8.63;43.10;100549.72;5366284;32;33553;-68
2022/03/04 10:05:01;;;;;;;45.33;23.53;;;;;;;8.62;41.67;100555.87;5386268;32;35068;-73
2022/03/04 10:08:03;;;;;;;40.12;22.98;;;;;;;7.60;44.43;100551.56;5368820;32;35669;-74
2022/03/04 10:11:06;;;;;;;38.73;22.07;;;;;;;8.97;40.72;100547.00;5390122;32;34022;-68
2022/03/04 10:14:09;;;;;;;36.63;21.03;;;;;;;8.74;41.62;100550.28;5370652;32;34904;-66
2022/03/04 10:17:14;;;;;;;37.40;20.60;;;;;;;8.67;41.16;100553.97;5367157;32;43661;-78
2022/03/04 10:20:17;;;;;;;50.23;21.40;;;;;;;6.39;46.70;100559.41;5387788;32;34241;-64
2022/03/04 10:23:22;;;;;;;41.17;21.40;;;;;;;6.84;46.51;100554.16;5370407;32;34080;-74
2022/03/04 10:26:28;;;;;;;39.43;21.07;;;;;;;6.96;45.79;100561.72;5377500;32;34943;-63
2022/03/04 10:29:32;;;;;;;41.50;21.67;;;;;;;6.94;45.62;100555.66;5382688;32;35148;-79
2022/03/04 10:32:46;;;;;;;41.80;21.17;;;;;;;7.78;43.84;100550.22;5371080;32;44980;-66
2022/03/04 10:36:08;;;;;;;47.90;22.10;;;;;;;7.13;45.39;100556.13;5359487;32;33015;-76
2022/03/04 10:39:12;;;;;;;39.57;20.13;;;;;;;6.36;48.00;100559.44;5367904;32;43910;-67
2022/03/04 10:42:16;;;;;;;36.83;19.80;;;;;;;7.46;45.17;100549.25;5354012;32;34104;-68
2022/03/04 10:45:22;;;;;;;38.78;21.33;;;;;;;6.38;47.91;100555.09;5366461;32;34172;-71
2022/03/04 10:48:24;;;;;;;39.27;21.90;;;;;;;7.17;46.41;100546.47;5355816;32;34159;-70
2022/03/04 10:51:38;;;;;;;47.13;22.90;;;;;;;5.86;49.27;100549.88;5367693;32;35517;-78
2022/03/04 10:54:49;;;;;;;43.67;21.85;;;;;;;6.90;46.61;100554.03;5368102;32;44370;-68
2022/03/04 10:57:53;;;;;;;39.23;20.83;;;;;;;6.56;48.03;100550.38;5372859;32;35358;-73
2022/03/04 11:00:57;;;;;;;41.50;22.10;;;;;;;6.91;45.73;100547.91;5378172;32;35516;-75
2022/03/04 11:04:01;;;;;;;38.43;20.47;;;;;;;8.17;42.95;100535.25;5375385;32;34538;-71
2022/03/04 11:07:04;;;;;;;42.40;21.52;;;;;;;7.79;44.17;100537.12;5367203;32;34065;-74
2022/03/04 11:10:06;;;;;;;36.33;20.67;;;;;;;7.52;44.53;100537.78;5341784;32;33963;-68
2022/03/04 11:13:10;;;;;;;41.50;22.30;;;;;;;8.84;41.62;100535.16;5377833;32;33082;-71
2022/03/04 11:16:12;;;;;;;35.35;20.52;;;;;;;8.02;43.60;100528.66;5362445;32;44760;-70
2022/03/04 11:19:16;;;;;;;39.50;22.50;;;;;;;7.97;43.23;100529.69;5378151;32;35965;-68
2022/03/04 11:22:18;;;;;;;42.62;23.08;;;;;;;7.68;44.37;100538.28;5365039;32;35226;-67
2022/03/04 11:25:22;;;;;;;46.33;23.13;;;;;;;7.95;43.42;100531.50;5383555;32;34177;-71
2022/03/04 11:28:36;;;;;;;44.07;22.40;;;;;;;8.42;42.26;100535.47;5385706;32;34242;-68
2022/03/04 11:31:38;;;;;;;39.70;22.90;;;;;;;9.13;40.90;100535.13;5371562;32;33976;-68
2022/03/04 11:34:42;;;;;;;40.80;22.63;;;;;;;7.23;44.39;100544.56;5397761;32;44702;-76
2022/03/04 11:37:49;;;;;;;40.80;22.50;;;;;;;8.64;41.59;100533.97;5393823;32;33513;-75
2022/03/04 11:40:52;;;;;;;38.90;21.87;;;;;;;9.28;40.10;100531.19;5379301;32;34160;-74
2022/03/04 11:44:10;;;;;;;37.30;21.40;;;;;;;8.60;42.11;100540.19;5363162;32;44465;-66
2022/03/04 11:47:14;;;;;;;48.53;24.03;;;;;;;7.49;45.95;100537.88;5384455;32;34015;-67
2022/03/04 11:50:33;;;;;;;50.03;22.77;;;;;;;7.05;48.35;100548.44;5394915;32;34178;-66
2022/03/04 11:53:36;;;;;;;43.43;23.40;;;;;;;6.63;49.36;100546.75;5379306;32;34157;-65
2022/03/04 11:56:51;;;;;;;37.90;21.57;;;;;;;7.08;48.12;100542.28;5378365;32;34173;-77
2022/03/04 11:59:54;;;;;;;42.87;22.73;;;;;;;6.39;49.05;100548.97;5389299;32;34366;-70
2022/03/04 12:02:58;;;;;;;43.30;22.43;;;;;;;7.40;47.40;100548.53;5384203;32;35599;-69
2022/03/04 12:06:01;;;;;;;37.57;21.30;;;;;;;7.06;47.87;100550.16;5391812;32;35464;-71
2022/03/04 12:09:29;;;;;;;44.83;22.87;;;;;;;5.98;50.12;100558.41;5368556;32;36716;-69
2022/03/04 12:12:31;;;;;;;39.87;21.97;;;;;;;5.61;51.23;100562.50;5391332;32;35101;-71
2022/03/04 12:15:44;;;;;;;42.40;22.73;;;;;;;7.21;47.21;100548.09;5384821;32;33873;-66
2022/03/04 12:18:47;;;;;;;37.70;21.80;;;;;;;6.65;48.52;100552.81;5387141;32;44135;-70
2022/03/04 12:21:50;;;;;;;;;;;;;;;7.22;47.28;100542.00;5377625;32;38083;-77
2022/03/04 12:24:56;;;;;;;40.40;20.90;;;;;;;7.22;45.46;100553.31;5394331;32;35021;-71
2022/03/04 12:27:58;;;;;;;41.97;23.93;;;;;;;8.21;43.95;100544.75;5389878;32;34582;-77
2022/03/04 12:31:00;;;;;;;40.93;22.43;;;;;;;8.31;44.02;100545.37;5354039;32;34509;-79
2022/03/04 12:34:04;;;;;;;38.80;20.40;;;;;;;7.46;45.96;100557.09;5385745;32;34474;-69
2022/03/04 12:37:08;;;;;;;45.20;23.03;;;;;;;7.79;45.99;100551.94;5353241;32;34856;-74
2022/03/04 12:40:12;;;;;;;41.40;23.03;;;;;;;7.23;47.29;100556.78;5378977;32;44840;-73
2022/03/04 12:43:14;;;;;;;;;;;;;;;7.79;46.05;100550.22;5366340;32;36004;-71
2022/03/04 12:46:19;;;;;;;41.77;21.47;;;;;;;8.75;42.03;100549.37;5383442;32;35642;-71
2022/03/04 12:49:30;;;;;;;40.90;23.17;;;;;;;8.06;43.92;100550.41;5393112;32;35348;-75
2022/03/04 12:52:32;;;;;;;43.47;23.27;;;;;;;7.93;43.42;100539.38;5357313;32;34840;-74
2022/03/04 12:55:36;;;;;;;36.37;20.67;;;;;;;8.22;43.04;100543.84;5391305;32;35209;-70
2022/03/04 12:58:39;;;;;;;;;;;;;;;8.30;42.58;100541.87;5356034;32;35688;-74
2022/03/04 13:01:44;;;;;;;40.88;21.35;;;;;;;8.69;41.47;100536.44;5377080;32;44590;-71
2022/03/04 13:04:57;;;;;;;36.63;20.97;;;;;;;8.47;41.36;100533.59;5366122;32;34053;-73
2022/03/04 13:08:00;;;;;;;39.92;22.08;;;;;;;7.91;42.95;100528.06;5360071;32;34727;-75
2022/03/04 13:11:14;;;;;;;39.43;21.33;;;;;;;7.90;42.67;100536.84;5366619;32;34931;-70
2022/03/04 13:14:18;;;;;;;40.40;22.80;;;;;;;8.50;42.56;100535.25;5350161;32;46637;-73
2022/03/04 13:17:20;;;;;;;;;;;;;;;7.82;43.66;100530.94;5371877;32;35421;-74
2022/03/04 13:20:22;;;;;;;38.97;22.67;;;;;;;8.38;42.60;100523.38;5395108;32;35534;-74
2022/03/04 13:23:24;;;;;;;38.73;22.50;;;;;;;9.64;39.79;100518.63;5384614;32;34863;-75
2022/03/04 13:26:27;;;;;;;43.03;22.07;;;;;;;10.08;38.62;100518.87;5397278;32;34856;-70
2022/03/04 13:29:40;;;;;;;38.55;22.02;;;;;;;9.26;40.66;100512.00;5361687;32;35278;-73
2022/03/04 13:32:45;;;;;;;47.33;23.77;;;;;;;9.75;39.17;100524.38;5387327;32;44949;-74
2022/03/04 13:35:50;;;;;;;42.80;22.87;;;;;;;7.59;43.24;100526.28;5385071;32;34712;-76
2022/03/04 13:39:09;;;;;;;41.33;22.27;;;;;;;8.23;43.44;100531.59;5378254;32;34968;-75
2022/03/04 13:42:19;;;;;;;42.20;23.27;;;;;;;8.48;43.53;100530.06;5356413;32;44816;-70
2022/03/04 13:45:34;;;;;;;45.97;21.43;;;;;;;8.97;42.32;100528.66;5380603;32;35366;-71
2022/03/04 13:48:36;;;;;;;39.87;22.03;;;;;;;9.45;40.75;100528.87;5381333;32;34481;-69
2022/03/04 13:51:38;;;;;;;40.53;23.07;;;;;;;8.90;41.86;100524.50;5387014;32;34079;-73
2022/03/04 13:54:49;;;;;;;37.10;20.73;;;;;;;8.66;42.16;100531.31;5376871;32;44434;-74
2022/03/04 13:57:55;;;;;;;44.90;22.40;;;;;;;9.70;39.91;100523.69;5392723;32;37128;-75
2022/03/04 14:01:05;;;;;;;37.67;20.30;;;;;;;9.18;40.26;100520.09;5383813;32;35185;-71
2022/03/04 14:04:08;;;;;;;43.97;23.03;;;;;;;9.22;39.70;100513.88;5387414;32;35582;-71
2022/03/04 14:07:16;;;;;;;40.42;22.42;;;;;;;8.15;43.54;100519.59;5383274;32;45991;-70
2022/03/04 14:10:20;;;;;;;40.80;23.17;;;;;;;7.86;44.50;100529.97;5380397;32;34340;-74
2022/03/04 14:13:23;;;;;;;43.03;23.33;;;;;;;8.06;45.22;100532.94;5375128;32;34575;-74